Time;durP1;ratioP1;P1;durP2;ratioP2;P2;SDS_P1;SDS_P2;PMS_P1;PMS_P2;Temp;Humidity;BMP_temperature;BMP_pressure;BME280_temperature;BME280_humidity;BME280_pressure;Samples;Min_cycle;Max_cycle;Signal;HPM_P1;HPM_P2
2022/11/08 05:01:33;;;;;;;44.00;17.83;;;;;;;4.55;100.00;100954.84;5482253;28;20149;-85
2022/11/08 05:04:36;;;;;;;44.58;18.95;;;;;;;4.63;100.00;100957.75;5219212;34;34619;-85
2022/11/08 05:07:38;;;;;;;41.95;18.33;;;;;;;4.74;100.00;100957.72;5218750;34;34754;-85
2022/11/08 05:10:41;;;;;;;42.97;18.10;;;;;;;4.72;100.00;100957.00;5217953;34;32628;-85
2022/11/08 05:13:44;;;;;;;51.00;18.17;;;;;;;4.75;100.00;100954.06;5219223;34;34048;-86
2022/11/08 05:16:47;;;;;;;43.90;17.25;;;;;;;4.82;100.00;100965.09;5218962;34;34142;-89
2022/11/08 05:23:23;;;;;;;35.65;16.35;;;;;;;4.91;100.00;100955.47;5207097;34;32228;-86
2022/11/08 05:26:26;;;;;;;44.85;15.50;;;;;;;4.95;100.00;100959.59;5220064;34;34078;-86
2022/11/08 05:29:29;;;;;;;36.10;15.95;;;;;;;4.91;100.00;100961.66;5218665;34;33754;-86
2022/11/08 05:32:32;;;;;;;38.08;15.85;;;;;;;4.93;100.00;100965.03;5206292;34;34811;-86
2022/11/08 05:35:35;;;;;;;38.30;16.27;;;;;;;4.91;100.00;100971.47;5218710;34;34788;-86
2022/11/08 05:38:38;;;;;;;42.03;16.55;;;;;;;4.94;100.00;100976.56;5220548;34;33626;-86
2022/11/08 05:41:41;;;;;;;60.10;17.87;;;;;;;4.99;100.00;100975.22;5218263;34;34879;-86
2022/11/08 05:44:44;;;;;;;36.05;16.17;;;;;;;5.00;100.00;100981.38;5218603;34;34465;-86
2022/11/08 05:47:48;;;;;;;43.42;16.50;;;;;;;5.03;100.00;100973.16;5218769;34;34642;-86
2022/11/08 05:50:51;;;;;;;34.10;16.05;;;;;;;5.08;100.00;100984.28;5218505;34;34322;-86
2022/11/08 05:53:54;;;;;;;33.35;14.57;;;;;;;5.15;100.00;100992.63;5231094;34;34033;-87
2022/11/08 05:56:56;;;;;;;41.33;15.82;;;;;;;5.09;100.00;100991.31;5219205;34;34042;-86
2022/11/08 05:59:59;;;;;;;33.55;15.48;;;;;;;5.10;100.00;100995.69;5218756;34;34335;-86
2022/11/08 06:03:13;;;;;;;39.20;15.90;;;;;;;5.17;100.00;100991.50;5206049;34;33918;-86
2022/11/08 06:06:18;;;;;;;44.20;14.85;;;;;;;5.18;100.00;100990.56;5212204;34;34667;-85
2022/11/08 06:09:20;;;;;;;46.58;15.65;;;;;;;5.19;100.00;100986.06;5203634;34;33893;-86
2022/11/08 06:12:23;;;;;;;51.42;15.98;;;;;;;5.21;100.00;100978.78;5202820;34;34935;-86
2022/11/08 06:15:26;;;;;;;54.25;15.57;;;;;;;5.19;100.00;100986.91;5203786;34;34314;-86
2022/11/08 06:18:31;;;;;;;33.45;15.00;;;;;;;5.20;100.00;100988.59;5191249;34;32634;-86
2022/11/08 06:21:33;;;;;;;45.45;17.00;;;;;;;5.29;100.00;100996.81;5190780;34;32418;-86
2022/11/08 06:24:36;;;;;;;44.22;15.98;;;;;;;5.21;100.00;100997.47;5191143;34;32557;-86
2022/11/08 06:27:38;;;;;;;38.22;15.70;;;;;;;5.19;100.00;101000.25;5203761;34;33976;-86
2022/11/08 06:30:42;;;;;;;52.17;15.48;;;;;;;5.27;100.00;101006.78;5186391;34;33706;-86
2022/11/08 06:33:44;;;;;;;48.22;16.15;;;;;;;5.28;100.00;101009.31;5203652;34;34626;-86
2022/11/08 06:36:47;;;;;;;44.17;17.55;;;;;;;5.34;100.00;101011.47;5190651;34;32957;-86
2022/11/08 06:39:50;;;;;;;37.92;15.90;;;;;;;5.37;100.00;101008.53;5190945;34;33920;-86
2022/11/08 06:42:52;;;;;;;55.03;16.67;;;;;;;5.43;100.00;101015.19;5203193;34;34488;-86
2022/11/08 06:45:59;;;;;;;47.92;15.98;;;;;;;5.52;100.00;101017.06;5190781;34;31980;-86
2022/11/08 06:49:02;;;;;;;53.15;16.40;;;;;;;5.58;100.00;101013.03;5190489;34;33173;-86
2022/11/08 06:52:06;;;;;;;33.78;15.55;;;;;;;5.64;100.00;101025.88;5202209;34;34725;-86
2022/11/08 06:55:09;;;;;;;34.65;14.30;;;;;;;5.65;100.00;101025.75;5202128;34;33669;-86
2022/11/08 06:58:11;;;;;;;40.10;15.40;;;;;;;5.66;100.00;101021.25;5199690;34;141797;-86
2022/11/08 07:01:14;;;;;;;36.50;15.15;;;;;;;5.66;100.00;101023.94;5190808;34;33601;-86
2022/11/08 07:04:17;;;;;;;42.22;14.25;;;;;;;5.79;100.00;101029.06;5202746;34;34007;-86
2022/11/08 07:07:20;;;;;;;39.17;14.70;;;;;;;5.63;100.00;101033.03;5203935;34;33935;-86
2022/11/08 07:10:25;;;;;;;29.58;14.07;;;;;;;5.85;100.00;101028.53;5203120;34;34576;-87
2022/11/08 07:13:28;;;;;;;42.45;15.25;;;;;;;5.87;100.00;101034.63;5180611;34;34039;-89
2022/11/08 07:16:30;;;;;;;46.00;15.32;;;;;;;5.77;100.00;101033.72;5204169;34;34304;-90
2022/11/08 07:19:33;;;;;;;34.60;15.20;;;;;;;5.80;100.00;101030.78;5209722;34;33888;-88
2022/11/08 07:22:35;;;;;;;37.95;15.32;;;;;;;5.94;100.00;101033.16;5219216;34;35451;-86
2022/11/08 07:25:38;;;;;;;63.85;14.70;;;;;;;5.86;100.00;101032.94;5231473;34;34352;-86
2022/11/08 07:28:41;;;;;;;64.25;16.27;;;;;;;5.90;100.00;101026.31;5206846;34;33837;-86
2022/11/08 07:31:44;;;;;;;61.97;14.48;;;;;;;5.98;100.00;101023.03;5203286;34;33917;-86
2022/11/08 07:34:47;;;;;;;83.03;15.75;;;;;;;6.10;100.00;101035.34;5202994;34;33867;-86
2022/11/08 07:37:50;;;;;;;42.97;13.52;;;;;;;6.00;100.00;101034.47;5202420;34;33908;-85
2022/11/08 07:40:57;;;;;;;35.40;13.27;;;;;;;6.12;100.00;101038.75;5203743;34;35460;-86
2022/11/08 07:44:00;;;;;;;54.47;14.48;;;;;;;6.28;100.00;101031.06;5214090;34;33861;-85
2022/11/08 07:47:02;;;;;;;62.33;16.20;;;;;;;6.26;100.00;101038.38;5206800;34;35466;-85
2022/11/08 07:50:05;;;;;;;37.92;14.57;;;;;;;6.21;100.00;101042.44;5203276;34;34036;-85
2022/11/08 07:53:09;;;;;;;44.03;13.90;;;;;;;6.47;100.00;101043.69;5203288;34;33695;-85
2022/11/08 07:56:11;;;;;;;31.15;15.05;;;;;;;6.46;100.00;101033.09;5200474;34;33186;-85
2022/11/08 07:59:14;;;;;;;70.45;16.40;;;;;;;6.56;100.00;101042.03;5216783;34;35102;-85
2022/11/08 08:02:18;;;;;;;43.92;15.43;;;;;;;6.36;100.00;101041.94;5219106;34;35346;-85
2022/11/08 08:05:21;;;;;;;42.42;15.38;;;;;;;6.59;100.00;101025.69;5190964;34;32491;-85
2022/11/08 08:08:23;;;;;;;38.15;14.52;;;;;;;6.58;100.00;101034.69;5207482;34;34080;-85
2022/11/08 08:11:26;;;;;;;52.03;15.88;;;;;;;6.74;100.00;101037.72;5213174;34;35629;-85
2022/11/08 08:14:35;;;;;;;43.83;15.18;;;;;;;6.76;100.00;101041.09;5202124;34;34202;-85
2022/11/08 08:17:38;;;;;;;45.15;16.27;;;;;;;6.93;100.00;101041.41;5189966;34;32811;-85
2022/11/08 08:20:41;;;;;;;63.25;15.50;;;;;;;7.01;100.00;101041.56;5200126;34;33948;-85
2022/11/08 08:23:44;;;;;;;34.78;14.73;;;;;;;6.94;100.00;101035.94;5201995;34;34127;-85
2022/11/08 08:26:46;;;;;;;42.92;15.68;;;;;;;7.07;100.00;101038.34;5201461;34;34036;-85
2022/11/08 08:29:49;;;;;;;46.65;16.00;;;;;;;6.99;100.00;101035.50;5200316;34;33895;-85
2022/11/08 08:32:59;;;;;;;51.35;15.90;;;;;;;7.10;100.00;101027.34;5188657;34;32714;-85
2022/11/08 08:36:22;;;;;;;32.83;15.05;;;;;;;7.15;100.00;101035.81;5200120;34;35325;-85
2022/11/08 08:39:24;;;;;;;32.60;15.35;;;;;;;7.19;100.00;101033.69;5200771;34;34870;-86
2022/11/08 08:42:27;;;;;;;37.58;16.02;;;;;;;7.25;100.00;101039.38;5200304;34;34066;-84
2022/11/08 08:45:31;;;;;;;40.15;17.60;;;;;;;7.24;100.00;101042.16;5190800;34;34494;-88
2022/11/08 08:48:37;;;;;;;32.75;16.52;;;;;;;7.29;100.00;101044.44;5207354;34;33667;-90
2022/11/08 08:51:39;;;;;;;33.53;15.70;;;;;;;7.52;100.00;101051.22;5207297;34;34265;-89
2022/11/08 08:54:42;;;;;;;37.25;17.20;;;;;;;7.39;100.00;101056.81;5200421;34;34306;-86
2022/11/08 08:57:46;;;;;;;39.05;17.37;;;;;;;7.15;100.00;101048.34;5197079;34;33963;-86
2022/11/08 09:00:49;;;;;;;39.97;17.65;;;;;;;7.19;100.00;101055.13;5216895;34;35323;-86
2022/11/08 09:04:12;;;;;;;36.92;15.93;;;;;;;7.33;100.00;101056.53;5217818;34;35543;-85
2022/11/08 09:07:15;;;;;;;33.08;18.17;;;;;;;7.48;100.00;101065.84;5190651;34;30832;-83
2022/11/08 09:10:18;;;;;;;34.55;18.05;;;;;;;7.63;100.00;101067.09;5201269;34;34734;-87
2022/11/08 09:13:22;;;;;;;32.92;17.60;;;;;;;7.77;100.00;101070.34;5193711;34;33854;-85
2022/11/08 09:16:24;;;;;;;36.92;17.00;;;;;;;7.91;100.00;101064.56;5189203;34;33323;-86
2022/11/08 09:19:27;;;;;;;38.83;17.92;;;;;;;8.00;100.00;101077.09;5189443;34;33677;-87
2022/11/08 09:22:32;;;;;;;36.42;18.35;;;;;;;8.11;100.00;101082.31;5201560;34;32213;-87
2022/11/08 09:25:35;;;;;;;41.47;19.48;;;;;;;8.15;100.00;101077.50;5206781;34;33618;-86
2022/11/08 09:28:38;;;;;;;36.22;19.00;;;;;;;7.85;100.00;101083.91;5201999;34;33881;-86
2022/11/08 09:31:41;;;;;;;41.47;18.73;;;;;;;7.95;100.00;101082.88;5201055;34;33979;-86
2022/11/08 09:34:44;;;;;;;37.88;19.42;;;;;;;8.27;100.00;101078.16;5200777;34;33960;-86
2022/11/08 09:37:47;;;;;;;38.15;19.80;;;;;;;8.38;100.00;101076.19;5187507;34;32934;-86
2022/11/08 09:41:10;;;;;;;39.40;20.90;;;;;;;8.60;100.00;101079.50;5188368;34;33409;-86
2022/11/08 09:44:52;;;;;;;42.25;20.52;;;;;;;8.56;100.00;101075.41;5186880;34;33027;-85
2022/11/08 09:47:58;;;;;;;37.25;20.50;;;;;;;8.45;100.00;101067.53;5213334;34;33639;-86
2022/11/08 09:51:08;;;;;;;37.78;19.33;;;;;;;8.52;100.00;101069.50;5196081;34;32845;-86
2022/11/08 09:54:23;;;;;;;40.55;20.52;;;;;;;8.38;100.00;101062.78;5203251;34;34034;-86
2022/11/08 09:57:34;;;;;;;39.30;18.17;;;;;;;8.54;100.00;101067.53;5190581;34;32115;-86
2022/11/08 10:00:39;;;;;;;40.40;20.45;;;;;;;8.44;100.00;101069.38;5200686;34;33031;-87
2022/11/08 10:03:47;;;;;;;39.30;20.35;;;;;;;8.50;100.00;101068.78;5205558;34;32562;-85
2022/11/08 10:07:23;;;;;;;42.03;21.70;;;;;;;8.71;100.00;101068.56;5204419;34;34525;-90
2022/11/08 10:10:34;;;;;;;39.97;19.85;;;;;;;8.72;100.00;101064.91;5196279;34;35114;-86
2022/11/08 10:13:55;;;;;;;41.13;20.62;;;;;;;8.90;100.00;101066.78;5180095;34;32791;-86
2022/11/08 10:17:10;;;;;;;42.78;21.77;;;;;;;8.96;100.00;101056.28;5202061;34;34891;-86
2022/11/08 10:20:29;;;;;;;41.03;22.25;;;;;;;9.27;100.00;101061.28;5202230;34;34634;-86
2022/11/08 10:23:49;;;;;;;44.05;21.30;;;;;;;9.17;100.00;101052.47;5200797;34;34806;-86
2022/11/08 10:26:56;;;;;;;46.85;22.58;;;;;;;9.22;100.00;101053.72;5190664;34;32199;-86
2022/11/08 10:30:04;;;;;;;45.25;22.75;;;;;;;9.15;100.00;101057.97;5202712;34;33961;-86
2022/11/08 10:33:26;;;;;;;41.67;21.70;;;;;;;9.12;100.00;101042.16;5202677;34;34259;-86
2022/11/08 10:36:37;;;;;;;44.65;22.25;;;;;;;9.21;100.00;101051.16;5202528;34;34932;-86
2022/11/08 10:40:09;;;;;;;43.63;22.35;;;;;;;9.23;100.00;101039.25;5202233;34;33827;-90
2022/11/08 10:43:28;;;;;;;44.63;23.08;;;;;;;9.37;100.00;101029.00;5202460;34;34490;-86
2022/11/08 10:46:41;;;;;;;47.17;23.38;;;;;;;9.69;100.00;101037.34;5183431;34;32449;-86
2022/11/08 10:49:44;;;;;;;42.22;21.80;;;;;;;10.12;100.00;101034.75;5189020;34;33041;-86
2022/11/08 10:52:58;;;;;;;44.88;22.95;;;;;;;10.48;100.00;101032.81;5202601;34;34443;-86
2022/11/08 10:56:04;;;;;;;43.53;23.42;;;;;;;10.72;100.00;101023.16;5202448;34;34036;-86
2022/11/08 10:59:28;;;;;;;43.70;24.90;;;;;;;10.78;100.00;101019.81;5202589;34;33950;-86
2022/11/08 11:02:33;;;;;;;41.30;21.83;;;;;;;11.22;100.00;101011.50;5202492;34;33970;-86
2022/11/08 11:05:41;;;;;;;42.70;22.67;;;;;;;11.55;100.00;101018.59;5186135;34;33443;-86
2022/11/08 11:08:54;;;;;;;41.78;22.13;;;;;;;11.73;100.00;101009.50;5199177;34;34212;-86
2022/11/08 11:11:59;;;;;;;41.83;22.50;;;;;;;11.52;100.00;101000.06;5189085;34;33376;-86
2022/11/08 11:15:02;;;;;;;43.22;23.12;;;;;;;11.65;100.00;101007.63;5202674;34;33505;-86
2022/11/08 11:18:18;;;;;;;40.28;23.12;;;;;;;12.16;99.22;101000.16;5202404;34;34752;-86
2022/11/08 11:21:23;;;;;;;42.55;23.62;;;;;;;12.07;100.00;101001.19;5189452;34;34168;-86
2022/11/08 11:24:26;;;;;;;43.28;22.75;;;;;;;12.46;98.60;100997.69;5202803;34;34282;-86
2022/11/08 11:27:33;;;;;;;40.70;22.98;;;;;;;12.88;98.73;100999.19;5190194;34;32512;-87
2022/11/08 11:30:36;;;;;;;41.88;22.85;;;;;;;13.28;93.23;101006.22;5189611;34;33295;-86
2022/11/08 11:33:45;;;;;;;43.25;22.90;;;;;;;13.33;92.65;101000.25;5202208;34;34629;-85
2022/11/08 11:36:54;;;;;;;42.10;25.20;;;;;;;13.92;88.05;100988.75;5189762;34;32322;-86
2022/11/08 11:40:01;;;;;;;41.60;23.15;;;;;;;14.41;84.87;100989.03;5208659;34;33882;-86
2022/11/08 11:43:10;;;;;;;39.35;23.40;;;;;;;15.20;80.29;100978.31;5202262;34;34384;-86
2022/11/08 11:46:22;;;;;;;41.45;23.30;;;;;;;15.65;77.67;100986.25;5189077;34;32793;-86
2022/11/08 11:49:28;;;;;;;39.72;21.98;;;;;;;16.01;77.63;100980.69;5189086;34;32867;-86
2022/11/08 11:52:30;;;;;;;34.90;21.62;;;;;;;16.80;72.80;100979.47;5202528;34;33429;-85
2022/11/08 11:55:39;;;;;;;38.20;20.17;;;;;;;17.29;69.79;100974.78;5191997;34;32189;-86
2022/11/08 11:58:48;;;;;;;36.53;20.70;;;;;;;18.18;66.68;100968.03;5189293;34;32880;-86
2022/11/08 12:02:20;;;;;;;33.88;20.67;;;;;;;19.12;63.00;100961.12;5201929;34;33749;-86
2022/11/08 12:05:28;;;;;;;35.20;20.62;;;;;;;19.77;59.72;100960.84;5198886;34;34939;-86
2022/11/08 12:09:01;;;;;;;33.80;19.62;;;;;;;18.86;60.71;100949.31;5198556;34;34068;-86
2022/11/08 12:12:16;;;;;;;34.38;20.35;;;;;;;19.79;57.87;100950.56;5188216;34;33248;-86
2022/11/08 12:15:34;;;;;;;34.78;21.30;;;;;;;20.64;56.25;100939.72;5201978;34;34170;-90
2022/11/08 12:18:51;;;;;;;32.25;19.67;;;;;;;20.27;57.39;100939.75;5203426;34;34793;-87
2022/11/08 12:22:22;;;;;;;31.48;18.95;;;;;;;21.20;53.62;100933.03;5190431;34;32878;-86
2022/11/08 12:25:40;;;;;;;31.65;17.60;;;;;;;21.88;51.82;100928.97;5197072;34;33055;-86
2022/11/08 12:29:20;;;;;;;22.45;13.00;;;;;;;21.79;54.14;100930.41;5196500;34;34733;-86
2022/11/08 12:32:45;;;;;;;25.02;13.20;;;;;;;20.98;54.16;100913.56;5181334;34;31823;-86
2022/11/08 12:36:10;;;;;;;27.20;13.90;;;;;;;20.61;55.53;100908.19;5190002;34;32482;-86
2022/11/08 12:39:26;;;;;;;26.67;13.35;;;;;;;19.73;59.16;100907.75;5213136;34;35517;-86
2022/11/08 12:42:41;;;;;;;23.90;12.82;;;;;;;19.25;60.86;100898.28;5190398;34;32307;-86
2022/11/08 12:46:02;;;;;;;27.05;13.73;;;;;;;18.97;63.87;100894.06;5182639;34;33376;-86
2022/11/08 12:49:23;;;;;;;20.83;12.30;;;;;;;18.00;67.52;100906.03;5184289;34;35231;-86
2022/11/08 12:52:42;;;;;;;27.83;14.20;;;;;;;16.80;73.19;100907.91;5195986;34;33966;-86
2022/11/08 12:55:47;;;;;;;26.12;14.85;;;;;;;15.48;80.49;100895.31;5194985;34;33727;-86
2022/11/08 12:58:52;;;;;;;26.27;14.45;;;;;;;14.96;84.11;100898.19;5185929;34;33322;-86
2022/11/08 13:01:57;;;;;;;24.67;13.62;;;;;;;14.48;87.99;100903.28;5195998;34;32451;-86
2022/11/08 13:05:22;;;;;;;23.67;15.05;;;;;;;13.95;93.60;100899.91;5182288;34;34885;-86
2022/11/08 13:08:51;;;;;;;28.62;16.35;;;;;;;14.03;93.40;100897.09;5183211;34;34075;-86
2022/11/08 13:11:54;;;;;;;30.10;15.45;;;;;;;13.93;94.16;100898.41;5195618;34;34295;-86
2022/11/08 13:15:01;;;;;;;26.25;14.38;;;;;;;13.81;94.63;100893.47;5181798;34;31643;-86
2022/11/08 13:18:04;;;;;;;34.85;15.50;;;;;;;13.70;96.80;100890.38;5183171;34;32697;-90
2022/11/08 13:21:26;;;;;;;27.87;14.80;;;;;;;13.47;98.85;100902.09;5198873;34;34013;-89
2022/11/08 13:24:32;;;;;;;31.77;15.68;;;;;;;13.51;99.60;100879.09;5204411;34;34155;-86
2022/11/08 13:27:50;;;;;;;29.48;15.43;;;;;;;13.60;99.50;100880.69;5187235;34;32666;-86
2022/11/08 13:31:01;;;;;;;28.02;14.85;;;;;;;13.41;100.00;100883.06;5197968;34;32535;-85
2022/11/08 13:34:15;;;;;;;28.52;15.23;;;;;;;13.37;100.00;100879.91;5185458;34;33775;-86
2022/11/08 13:37:40;;;;;;;26.55;13.93;;;;;;;13.50;100.00;100879.25;5185094;34;34074;-85
2022/11/08 13:41:21;;;;;;;31.23;14.98;;;;;;;13.60;100.00;100880.69;5193121;34;32507;-86
2022/11/08 13:44:55;;;;;;;28.12;15.20;;;;;;;13.70;100.00;100884.97;5218837;34;34329;-84
2022/11/08 13:48:27;;;;;;;27.20;14.57;;;;;;;13.76;100.00;100885.06;5205436;34;34172;-89
2022/11/08 13:51:35;;;;;;;26.40;15.50;;;;;;;13.67;100.00;100894.28;5190677;34;35975;-85
2022/11/08 13:54:50;;;;;;;27.95;15.30;;;;;;;13.37;100.00;100894.25;5190985;34;32630;-84
2022/11/08 13:58:02;;;;;;;27.37;15.00;;;;;;;12.91;100.00;100896.97;5191211;34;32523;-84
2022/11/08 14:01:17;;;;;;;26.40;15.05;;;;;;;12.79;100.00;100894.87;5191331;34;32324;-85
2022/11/08 14:04:37;;;;;;;30.75;16.62;;;;;;;12.63;100.00;100885.00;5204104;34;34710;-84
2022/11/08 14:07:46;;;;;;;28.65;15.85;;;;;;;12.54;100.00;100884.22;5204751;34;34468;-84
2022/11/08 14:10:55;;;;;;;;;;;;;;;12.42;100.00;100889.19;5206835;34;34224;-84
2022/11/08 14:14:07;;;;;;;45.33;20.15;;;;;;;12.05;100.00;100897.13;5194938;34;34517;-84
2022/11/08 14:17:45;;;;;;;39.30;21.30;;;;;;;12.02;100.00;100907.28;5203366;34;35691;-84
2022/11/08 14:20:48;;;;;;;37.42;20.23;;;;;;;11.92;100.00;100898.53;5191999;34;33671;-84
2022/11/08 14:23:52;;;;;;;38.90;19.75;;;;;;;11.77;100.00;100898.37;5203138;34;34634;-89
2022/11/08 14:26:55;;;;;;;40.35;20.92;;;;;;;11.66;100.00;100896.03;5219381;34;34976;-89
2022/11/08 14:29:59;;;;;;;43.33;22.55;;;;;;;11.51;100.00;100889.66;5204426;34;32878;-89
2022/11/08 14:33:22;;;;;;;38.50;20.45;;;;;;;11.12;100.00;100882.31;5209009;34;32654;-86
2022/11/08 14:36:28;;;;;;;37.80;20.67;;;;;;;11.05;100.00;100881.28;5220164;34;35519;-84
2022/11/08 14:39:34;;;;;;;43.28;20.90;;;;;;;10.75;100.00;100885.47;5204707;34;34040;-86
2022/11/08 14:42:43;;;;;;;39.70;21.73;;;;;;;10.59;100.00;100887.16;5190598;34;32637;-86
2022/11/08 14:45:46;;;;;;;40.93;20.43;;;;;;;10.48;100.00;100886.62;5204679;34;34883;-86
2022/11/08 14:48:58;;;;;;;42.65;21.33;;;;;;;10.39;100.00;100886.59;5203587;34;34098;-86
2022/11/08 14:52:22;;;;;;;39.85;19.37;;;;;;;10.29;100.00;100891.25;5216851;34;34737;-85
2022/11/08 14:55:25;;;;;;;36.90;18.58;;;;;;;10.06;100.00;100896.38;5208214;34;34753;-85
2022/11/08 14:58:28;;;;;;;33.85;17.40;;;;;;;10.01;100.00;100895.16;5204315;34;34215;-85
2022/11/08 15:01:33;;;;;;;35.00;17.12;;;;;;;9.97;100.00;100892.81;5191512;34;32437;-84
2022/11/08 15:04:39;;;;;;;32.65;17.20;;;;;;;9.91;100.00;100893.41;5202547;34;34406;-85
2022/11/08 15:07:45;;;;;;;34.75;18.05;;;;;;;9.82;100.00;100902.47;5185076;34;32344;-85
2022/11/08 15:10:58;;;;;;;33.78;17.37;;;;;;;9.67;100.00;100904.91;5186091;34;32564;-85
2022/11/08 15:14:04;;;;;;;37.60;18.23;;;;;;;9.48;100.00;100905.97;5202462;34;34707;-85
2022/11/08 15:17:29;;;;;;;40.65;17.58;;;;;;;9.42;100.00;100908.41;5190747;34;32422;-84
2022/11/08 15:20:32;;;;;;;38.97;18.45;;;;;;;9.24;100.00;100914.69;5190504;34;33923;-85
2022/11/08 15:23:46;;;;;;;41.92;18.85;;;;;;;9.15;100.00;100914.78;5194248;34;33739;-84
2022/11/08 15:27:11;;;;;;;38.00;19.27;;;;;;;9.22;100.00;100907.78;5197199;34;33314;-85
2022/11/08 15:30:29;;;;;;;42.30;19.67;;;;;;;9.17;100.00;100919.00;5187539;34;32242;-85
2022/11/08 15:33:35;;;;;;;46.05;20.73;;;;;;;9.15;100.00;100912.91;5189874;34;32852;-84
2022/11/08 15:36:38;;;;;;;40.55;19.77;;;;;;;9.05;100.00;100928.28;5184178;34;31723;-85
2022/11/08 15:39:43;;;;;;;45.20;20.75;;;;;;;8.99;100.00;100924.38;5187557;34;32337;-86
2022/11/08 15:42:48;;;;;;;42.03;19.27;;;;;;;8.80;100.00;100928.06;5203789;34;34094;-86
2022/11/08 15:45:52;;;;;;;45.95;21.25;;;;;;;8.75;100.00;100924.16;5192781;34;33122;-85
2022/11/08 15:48:57;;;;;;;44.00;20.25;;;;;;;8.70;100.00;100924.59;5190493;34;33287;-86
2022/11/08 15:52:00;;;;;;;44.17;20.08;;;;;;;8.68;100.00;100925.75;5203462;34;33692;-86
2022/11/08 15:55:04;;;;;;;42.88;20.75;;;;;;;8.57;100.00;100929.47;5191022;34;32488;-85
2022/11/08 15:58:27;;;;;;;46.53;22.23;;;;;;;8.55;100.00;100932.34;5190675;34;31943;-85
2022/11/08 16:01:29;;;;;;;41.37;19.30;;;;;;;8.53;100.00;100937.00;5191392;34;32848;-86
2022/11/08 16:04:33;;;;;;;42.47;19.52;;;;;;;8.56;100.00;100936.69;5192245;34;33996;-86
2022/11/08 16:07:35;;;;;;;43.80;19.52;;;;;;;8.58;100.00;100929.34;5204301;34;35375;-86
2022/11/08 16:10:43;;;;;;;46.78;20.77;;;;;;;8.56;100.00;100935.84;5203809;34;34416;-85
2022/11/08 16:13:47;;;;;;;42.25;20.05;;;;;;;8.53;100.00;100934.31;5190816;34;33910;-85
2022/11/08 16:16:51;;;;;;;47.25;20.42;;;;;;;8.57;100.00;100930.34;5206729;34;33957;-86
2022/11/08 16:19:53;;;;;;;48.30;20.40;;;;;;;8.56;100.00;100935.84;5193930;34;33462;-86
2022/11/08 16:22:59;;;;;;;42.95;19.23;;;;;;;8.59;100.00;100922.13;5205217;34;35189;-85
2022/11/08 16:26:04;;;;;;;45.85;18.75;;;;;;;8.58;100.00;100923.12;5203895;34;34085;-85
2022/11/08 16:29:19;;;;;;;45.58;19.48;;;;;;;8.58;100.00;100931.19;5204964;34;34505;-85
2022/11/08 16:32:22;;;;;;;44.45;19.85;;;;;;;8.52;100.00;100929.13;5205483;34;35309;-88
2022/11/08 16:35:25;;;;;;;48.10;19.62;;;;;;;8.44;100.00;100926.34;5205251;34;34853;-90
2022/11/08 16:38:37;;;;;;;46.25;20.00;;;;;;;8.32;100.00;100933.72;5204389;34;34565;-88
2022/11/08 16:41:40;;;;;;;50.42;21.48;;;;;;;8.28;100.00;100937.69;5191774;34;32282;-87
2022/11/08 16:44:45;;;;;;;45.70;19.05;;;;;;;8.33;100.00;100938.06;5204243;34;34284;-86
2022/11/08 16:47:49;;;;;;;44.53;20.55;;;;;;;8.36;100.00;100943.97;5203132;34;33686;-87
2022/11/08 16:51:01;;;;;;;46.55;20.12;;;;;;;8.41;100.00;100948.94;5203156;34;34805;-87
2022/11/08 16:54:16;;;;;;;45.50;19.92;;;;;;;8.40;100.00;100944.59;5189301;34;33979;-87
2022/11/08 16:57:19;;;;;;;50.70;20.92;;;;;;;8.41;100.00;100946.25;5190700;34;32474;-87
2022/11/08 17:00:45;;;;;;;46.00;19.98;;;;;;;8.40;100.00;100950.78;5190325;34;32663;-86
